Abingdon, Illinois
Current Conditions -  °F | °C
As of 8:35 PM on Sunday 21 Dec 2014 (Local Time) from KGBG Reporting Station
Light Rain Light Rain  
Wind Chill: -2°   Ceiling: 2200
Heat Index:   Visibility: 7mi
Dew Point:   Wind: 8mph
Humidity: 87%   Direction: 130°SE
Pressure: 29.96"   Gusts: 16mph
Location:  40.8°N, 90.4°W
Report Text: KGBG 220235Z AUTO 13007G14KT 7SM -RA BKN022 BKN029 OVC045 02/00 A2996 RMK AO2 T00200000
Loading
Personal Weather Stations






























Interactive Weather Map New forecast layout! Learn more

10-Day Weather Forecast

Advertisements
Track Severe Weather on mobile